Hauptseite
METAR-TAF:

METAR-TAF

Flughäfen :

Exeter International Airport

Exeter, England

Breite: 50-44N, Länge: 003-25W, Höhe: 30 m

Beobachtung

Neuester Wetterbericht von vor 21 Minuten, um 19:20 UTC
Wind 6 kt aus Süd
Temperatur 16°C
Luftfeuchtigkeit 63%
Luftdruck 1018 hPa
Sichtweite 10 km oder mehr
keine Wolken unter 1500 m und keine Kumulonimbus oder Gewitterwolken

METAR: EGTE 221920Z 18006KT CAVOK 16/09 Q1018

Zeit: 20:41 (19:41 UTC)

Prognose

Neuester Wetterbericht von vor 2 Stunden und 40 Minuten, um 17:01 UTC
Gültige Prognose vom 22 um 18 UTC bis 23 um 03 UTC
Wind 12 kt aus Süd/Südost
Sichtweite 10 km oder mehr
Leicht bewölkt in der Höhe von 4000 ft
Übergehend zu
vom 22 um 18 UTC bis 22 um 21 UTC
Wind 3 kt aus unterschiedlichen Richtungen
Wahrscheinlichkeit 30%
vom 23 um 00 UTC bis 23 um 03 UTC
Sichtweite: 6000 m

TAF: EGTE 221701Z 2218/2303 16012KT 9999 FEW040 BECMG 2218/2221 VRB03KT PROB30 2300/2303 6000

Wetterbeobachtungen und Prognosen von mehr als 4000 Flughäfen (METAR und TAF Bericht).

Die verfügbaren Stationen werden durch gelbe und rote Markierungen auf der Karte dargestellt.

Führen Sie die Maus auf sie, um den Namen der Station zu sehen.

Darauf klicken, um die Beobachtung von Wetterbeobachtungen und Prognosen zu sehen.

Um die Karte zu ändern : klicken Sie auf den grünen Tasten mit einem schwarzen Kreuz Zum Vergrößern, auf den grünen Button mit einem Gedankenstrich zu verkleinern, oder auf die grünen Pfeile für benachbarte Karten.


METAR-TAF: